sensor_id;sensor_type;location;lat;lon;timestamp;temperature;humidity
75217;HTU21D;63800;51.972;5.682;2022-10-16T00:01:33;12.14;83.27
75217;HTU21D;63800;51.972;5.682;2022-10-16T00:03:59;12.31;82.60
75217;HTU21D;63800;51.972;5.682;2022-10-16T00:06:26;12.40;82.17
75217;HTU21D;63800;51.972;5.682;2022-10-16T00:08:52;12.29;82.58
75217;HTU21D;63800;51.972;5.682;2022-10-16T00:11:24;12.14;83.81
75217;HTU21D;63800;51.972;5.682;2022-10-16T00:13:51;12.15;83.57
75217;HTU21D;63800;51.972;5.682;2022-10-16T00:16:17;12.20;83.39
75217;HTU21D;63800;51.972;5.682;2022-10-16T00:18:43;12.27;83.32
75217;HTU21D;63800;51.972;5.682;2022-10-16T00:21:12;12.29;83.06
75217;HTU21D;63800;51.972;5.682;2022-10-16T00:23:38;12.18;83.58
75217;HTU21D;63800;51.972;5.682;2022-10-16T00:26:06;12.30;83.28
75217;HTU21D;63800;51.972;5.682;2022-10-16T00:28:32;12.23;83.41
75217;HTU21D;63800;51.972;5.682;2022-10-16T00:30:58;12.28;83.27
75217;HTU21D;63800;51.972;5.682;2022-10-16T00:33:23;12.14;83.95
75217;HTU21D;63800;51.972;5.682;2022-10-16T00:35:49;12.16;83.96
75217;HTU21D;63800;51.972;5.682;2022-10-16T00:38:15;12.16;84.01
75217;HTU21D;63800;51.972;5.682;2022-10-16T00:40:41;12.07;84.58
75217;HTU21D;63800;51.972;5.682;2022-10-16T00:45:59;12.05;84.83
75217;HTU21D;63800;51.972;5.682;2022-10-16T00:48:25;12.03;84.92
75217;HTU21D;63800;51.972;5.682;2022-10-16T00:50:51;12.10;84.52
75217;HTU21D;63800;51.972;5.682;2022-10-16T00:53:17;12.13;84.44
75217;HTU21D;63800;51.972;5.682;2022-10-16T00:55:42;12.11;84.62
75217;HTU21D;63800;51.972;5.682;2022-10-16T00:58:09;12.06;84.90
75217;HTU21D;63800;51.972;5.682;2022-10-16T01:00:35;12.13;84.55
75217;HTU21D;63800;51.972;5.682;2022-10-16T01:03:02;12.20;84.53
75217;HTU21D;63800;51.972;5.682;2022-10-16T01:05:37;12.25;84.55
75217;HTU21D;63800;51.972;5.682;2022-10-16T01:08:13;12.29;84.23
75217;HTU21D;63800;51.972;5.682;2022-10-16T01:10:57;12.28;84.29
75217;HTU21D;63800;51.972;5.682;2022-10-16T01:13:37;12.38;84.16
75217;HTU21D;63800;51.972;5.682;2022-10-16T01:18:55;12.37;84.26
75217;HTU21D;63800;51.972;5.682;2022-10-16T01:21:23;12.56;83.71
75217;HTU21D;63800;51.972;5.682;2022-10-16T01:26:36;12.59;83.47
75217;HTU21D;63800;51.972;5.682;2022-10-16T01:29:20;12.57;83.50
75217;HTU21D;63800;51.972;5.682;2022-10-16T01:31:54;12.64;83.20
75217;HTU21D;63800;51.972;5.682;2022-10-16T01:34:27;12.50;83.74
75217;HTU21D;63800;51.972;5.682;2022-10-16T01:37:02;12.72;82.91
75217;HTU21D;63800;51.972;5.682;2022-10-16T01:39:32;12.86;82.17
75217;HTU21D;63800;51.972;5.682;2022-10-16T01:42:03;12.59;83.32
75217;HTU21D;63800;51.972;5.682;2022-10-16T01:44:32;12.59;83.48
75217;HTU21D;63800;51.972;5.682;2022-10-16T01:46:59;12.49;83.97
75217;HTU21D;63800;51.972;5.682;2022-10-16T01:49:27;12.77;82.93
75217;HTU21D;63800;51.972;5.682;2022-10-16T01:51:56;12.40;84.70
75217;HTU21D;63800;51.972;5.682;2022-10-16T01:54:26;12.43;84.53
75217;HTU21D;63800;51.972;5.682;2022-10-16T01:56:53;12.45;84.65
75217;HTU21D;63800;51.972;5.682;2022-10-16T01:59:21;12.48;84.36
75217;HTU21D;63800;51.972;5.682;2022-10-16T02:01:50;12.49;84.70
75217;HTU21D;63800;51.972;5.682;2022-10-16T02:04:28;12.51;84.53
75217;HTU21D;63800;51.972;5.682;2022-10-16T02:06:55;12.45;84.75
75217;HTU21D;63800;51.972;5.682;2022-10-16T02:09:20;12.45;84.88
75217;HTU21D;63800;51.972;5.682;2022-10-16T02:11:46;12.44;84.85
75217;HTU21D;63800;51.972;5.682;2022-10-16T02:14:14;12.60;84.25
75217;HTU21D;63800;51.972;5.682;2022-10-16T02:16:45;12.53;84.48
75217;HTU21D;63800;51.972;5.682;2022-10-16T02:19:12;12.37;85.27
75217;HTU21D;63800;51.972;5.682;2022-10-16T02:21:50;12.51;84.49
75217;HTU21D;63800;51.972;5.682;2022-10-16T02:27:03;12.58;84.32
75217;HTU21D;63800;51.972;5.682;2022-10-16T02:29:38;12.49;84.73
75217;HTU21D;63800;51.972;5.682;2022-10-16T02:32:06;12.47;84.94
75217;HTU21D;63800;51.972;5.682;2022-10-16T02:34:33;12.45;84.97
75217;HTU21D;63800;51.972;5.682;2022-10-16T02:37:00;12.42;85.07
75217;HTU21D;63800;51.972;5.682;2022-10-16T02:39:28;12.34;85.38
75217;HTU21D;63800;51.972;5.682;2022-10-16T02:41:54;12.36;85.31
75217;HTU21D;63800;51.972;5.682;2022-10-16T02:44:19;12.42;85.09
75217;HTU21D;63800;51.972;5.682;2022-10-16T02:46:44;12.41;85.13
75217;HTU21D;63800;51.972;5.682;2022-10-16T02:49:10;12.35;85.66
75217;HTU21D;63800;51.972;5.682;2022-10-16T02:51:35;12.40;85.38
75217;HTU21D;63800;51.972;5.682;2022-10-16T02:54:02;12.42;85.26
75217;HTU21D;63800;51.972;5.682;2022-10-16T02:56:27;12.40;85.49
75217;HTU21D;63800;51.972;5.682;2022-10-16T02:58:52;12.35;85.36
75217;HTU21D;63800;51.972;5.682;2022-10-16T03:01:18;12.42;85.42
75217;HTU21D;63800;51.972;5.682;2022-10-16T03:03:43;12.35;85.85
75217;HTU21D;63800;51.972;5.682;2022-10-16T03:06:09;12.36;85.73
75217;HTU21D;63800;51.972;5.682;2022-10-16T03:08:34;12.27;86.12
75217;HTU21D;63800;51.972;5.682;2022-10-16T03:11:00;12.25;86.22
75217;HTU21D;63800;51.972;5.682;2022-10-16T03:13:25;12.32;85.67
75217;HTU21D;63800;51.972;5.682;2022-10-16T03:15:51;12.38;85.40
75217;HTU21D;63800;51.972;5.682;2022-10-16T03:18:16;12.29;85.80
75217;HTU21D;63800;51.972;5.682;2022-10-16T03:20:43;12.33;85.46
75217;HTU21D;63800;51.972;5.682;2022-10-16T03:23:08;12.35;85.56
75217;HTU21D;63800;51.972;5.682;2022-10-16T03:25:34;12.40;85.44
75217;HTU21D;63800;51.972;5.682;2022-10-16T03:27:59;12.38;85.27
75217;HTU21D;63800;51.972;5.682;2022-10-16T03:30:24;12.60;84.55
75217;HTU21D;63800;51.972;5.682;2022-10-16T03:32:50;12.72;83.84
75217;HTU21D;63800;51.972;5.682;2022-10-16T03:35:22;12.66;84.07
75217;HTU21D;63800;51.972;5.682;2022-10-16T03:37:48;12.70;83.72
75217;HTU21D;63800;51.972;5.682;2022-10-16T03:40:14;12.59;84.18
75217;HTU21D;63800;51.972;5.682;2022-10-16T03:42:39;12.30;85.74
75217;HTU21D;63800;51.972;5.682;2022-10-16T03:45:05;12.20;85.93
75217;HTU21D;63800;51.972;5.682;2022-10-16T03:47:31;12.25;85.80
75217;HTU21D;63800;51.972;5.682;2022-10-16T03:49:58;12.44;85.13
75217;HTU21D;63800;51.972;5.682;2022-10-16T03:52:23;12.41;84.90
75217;HTU21D;63800;51.972;5.682;2022-10-16T03:54:49;12.40;84.62
75217;HTU21D;63800;51.972;5.682;2022-10-16T03:57:14;12.23;85.84
75217;HTU21D;63800;51.972;5.682;2022-10-16T03:59:40;12.14;86.32
75217;HTU21D;63800;51.972;5.682;2022-10-16T04:02:05;12.19;85.88
75217;HTU21D;63800;51.972;5.682;2022-10-16T04:04:30;12.16;85.98
75217;HTU21D;63800;51.972;5.682;2022-10-16T04:06:56;12.17;85.78
75217;HTU21D;63800;51.972;5.682;2022-10-16T04:09:21;12.18;85.80
75217;HTU21D;63800;51.972;5.682;2022-10-16T04:11:47;12.25;85.61
75217;HTU21D;63800;51.972;5.682;2022-10-16T04:14:12;12.23;85.51
75217;HTU21D;63800;51.972;5.682;2022-10-16T04:16:37;12.13;86.05
75217;HTU21D;63800;51.972;5.682;2022-10-16T04:19:03;12.33;85.17
75217;HTU21D;63800;51.972;5.682;2022-10-16T04:21:28;12.29;85.28
75217;HTU21D;63800;51.972;5.682;2022-10-16T04:23:54;12.36;85.09
75217;HTU21D;63800;51.972;5.682;2022-10-16T04:26:19;12.33;85.13
75217;HTU21D;63800;51.972;5.682;2022-10-16T04:28:44;12.23;85.55
75217;HTU21D;63800;51.972;5.682;2022-10-16T04:31:10;12.20;85.77
75217;HTU21D;63800;51.972;5.682;2022-10-16T04:33:35;12.11;86.12
75217;HTU21D;63800;51.972;5.682;2022-10-16T04:36:02;12.15;86.10
75217;HTU21D;63800;51.972;5.682;2022-10-16T04:38:28;12.05;86.60
75217;HTU21D;63800;51.972;5.682;2022-10-16T04:40:53;11.99;87.20
75217;HTU21D;63800;51.972;5.682;2022-10-16T04:43:19;11.90;87.21
75217;HTU21D;63800;51.972;5.682;2022-10-16T04:45:45;11.79;87.72
75217;HTU21D;63800;51.972;5.682;2022-10-16T04:48:10;11.82;87.71
75217;HTU21D;63800;51.972;5.682;2022-10-16T04:50:36;11.85;87.68
75217;HTU21D;63800;51.972;5.682;2022-10-16T04:53:01;11.81;87.95
75217;HTU21D;63800;51.972;5.682;2022-10-16T04:55:27;11.77;87.98
75217;HTU21D;63800;51.972;5.682;2022-10-16T04:57:52;11.71;88.25
75217;HTU21D;63800;51.972;5.682;2022-10-16T05:00:18;11.71;88.22
75217;HTU21D;63800;51.972;5.682;2022-10-16T05:02:43;11.67;88.44
75217;HTU21D;63800;51.972;5.682;2022-10-16T05:05:09;11.75;87.94
75217;HTU21D;63800;51.972;5.682;2022-10-16T05:07:34;11.76;88.06
75217;HTU21D;63800;51.972;5.682;2022-10-16T05:10:00;11.78;87.82
75217;HTU21D;63800;51.972;5.682;2022-10-16T05:12:25;11.82;87.82
75217;HTU21D;63800;51.972;5.682;2022-10-16T05:14:50;12.35;84.99
75217;HTU21D;63800;51.972;5.682;2022-10-16T05:17:16;12.00;86.61
75217;HTU21D;63800;51.972;5.682;2022-10-16T05:19:41;11.77;87.90
75217;HTU21D;63800;51.972;5.682;2022-10-16T05:22:07;11.79;87.65
75217;HTU21D;63800;51.972;5.682;2022-10-16T05:24:32;11.74;87.81
75217;HTU21D;63800;51.972;5.682;2022-10-16T05:26:58;11.69;88.09
75217;HTU21D;63800;51.972;5.682;2022-10-16T05:29:23;11.61;88.57
75217;HTU21D;63800;51.972;5.682;2022-10-16T05:31:53;11.57;88.56
75217;HTU21D;63800;51.972;5.682;2022-10-16T05:34:19;11.64;88.28
75217;HTU21D;63800;51.972;5.682;2022-10-16T05:36:45;11.61;88.45
75217;HTU21D;63800;51.972;5.682;2022-10-16T05:39:10;11.79;87.49
75217;HTU21D;63800;51.972;5.682;2022-10-16T05:41:36;11.77;87.54
75217;HTU21D;63800;51.972;5.682;2022-10-16T05:44:04;11.78;87.41
75217;HTU21D;63800;51.972;5.682;2022-10-16T05:46:30;11.96;86.74
75217;HTU21D;63800;51.972;5.682;2022-10-16T05:48:55;11.88;87.05
75217;HTU21D;63800;51.972;5.682;2022-10-16T05:51:20;11.84;87.47
75217;HTU21D;63800;51.972;5.682;2022-10-16T05:53:46;11.83;87.35
75217;HTU21D;63800;51.972;5.682;2022-10-16T05:56:12;11.97;86.74
75217;HTU21D;63800;51.972;5.682;2022-10-16T05:58:40;11.84;87.30
75217;HTU21D;63800;51.972;5.682;2022-10-16T06:01:09;11.84;87.52
75217;HTU21D;63800;51.972;5.682;2022-10-16T06:03:35;11.85;87.40
75217;HTU21D;63800;51.972;5.682;2022-10-16T06:06:16;11.93;86.96
75217;HTU21D;63800;51.972;5.682;2022-10-16T06:08:43;11.91;87.28
75217;HTU21D;63800;51.972;5.682;2022-10-16T06:11:11;11.94;87.20
75217;HTU21D;63800;51.972;5.682;2022-10-16T06:13:37;11.85;87.67
75217;HTU21D;63800;51.972;5.682;2022-10-16T06:16:04;11.96;87.44
75217;HTU21D;63800;51.972;5.682;2022-10-16T06:18:30;11.93;87.61
75217;HTU21D;63800;51.972;5.682;2022-10-16T06:20:56;12.03;87.22
75217;HTU21D;63800;51.972;5.682;2022-10-16T06:23:22;12.07;86.92
75217;HTU21D;63800;51.972;5.682;2022-10-16T06:25:48;12.05;87.13
75217;HTU21D;63800;51.972;5.682;2022-10-16T06:28:14;11.93;87.78
75217;HTU21D;63800;51.972;5.682;2022-10-16T06:30:40;12.18;86.52
75217;HTU21D;63800;51.972;5.682;2022-10-16T06:33:05;12.30;86.03
75217;HTU21D;63800;51.972;5.682;2022-10-16T06:35:31;12.17;86.93
75217;HTU21D;63800;51.972;5.682;2022-10-16T06:37:57;12.82;83.81
75217;HTU21D;63800;51.972;5.682;2022-10-16T06:40:22;12.49;85.38
75217;HTU21D;63800;51.972;5.682;2022-10-16T06:42:48;12.26;86.42
75217;HTU21D;63800;51.972;5.682;2022-10-16T06:45:13;12.36;86.03
75217;HTU21D;63800;51.972;5.682;2022-10-16T06:47:39;12.21;86.90
75217;HTU21D;63800;51.972;5.682;2022-10-16T06:50:05;12.21;87.03
75217;HTU21D;63800;51.972;5.682;2022-10-16T06:52:34;12.31;86.31
75217;HTU21D;63800;51.972;5.682;2022-10-16T06:55:00;12.45;85.94
75217;HTU21D;63800;51.972;5.682;2022-10-16T06:57:26;12.45;86.26
75217;HTU21D;63800;51.972;5.682;2022-10-16T06:59:51;12.38;86.45
75217;HTU21D;63800;51.972;5.682;2022-10-16T07:02:17;12.49;86.15
75217;HTU21D;63800;51.972;5.682;2022-10-16T07:04:42;12.47;85.96
75217;HTU21D;63800;51.972;5.682;2022-10-16T07:07:08;12.67;85.48
75217;HTU21D;63800;51.972;5.682;2022-10-16T07:09:33;12.70;85.19
75217;HTU21D;63800;51.972;5.682;2022-10-16T07:11:58;12.69;85.61
75217;HTU21D;63800;51.972;5.682;2022-10-16T07:14:24;12.71;85.31
75217;HTU21D;63800;51.972;5.682;2022-10-16T07:16:50;12.84;85.28
75217;HTU21D;63800;51.972;5.682;2022-10-16T07:19:15;12.86;84.68
75217;HTU21D;63800;51.972;5.682;2022-10-16T07:21:43;12.99;84.24
75217;HTU21D;63800;51.972;5.682;2022-10-16T07:24:16;13.12;84.01
75217;HTU21D;63800;51.972;5.682;2022-10-16T07:26:43;13.17;83.72
75217;HTU21D;63800;51.972;5.682;2022-10-16T07:29:14;13.19;84.15
75217;HTU21D;63800;51.972;5.682;2022-10-16T07:31:41;13.10;84.27
75217;HTU21D;63800;51.972;5.682;2022-10-16T07:34:07;13.19;84.24
75217;HTU21D;63800;51.972;5.682;2022-10-16T07:36:32;13.16;84.64
75217;HTU21D;63800;51.972;5.682;2022-10-16T07:38:58;13.12;84.38
75217;HTU21D;63800;51.972;5.682;2022-10-16T07:41:23;13.12;84.18
75217;HTU21D;63800;51.972;5.682;2022-10-16T07:43:51;13.09;84.45
75217;HTU21D;63800;51.972;5.682;2022-10-16T07:46:17;13.18;83.95
75217;HTU21D;63800;51.972;5.682;2022-10-16T07:48:43;13.17;84.15
75217;HTU21D;63800;51.972;5.682;2022-10-16T07:51:13;13.33;83.45
75217;HTU21D;63800;51.972;5.682;2022-10-16T07:53:39;13.10;84.46
75217;HTU21D;63800;51.972;5.682;2022-10-16T07:56:06;13.17;84.17
75217;HTU21D;63800;51.972;5.682;2022-10-16T07:58:33;13.30;83.71
75217;HTU21D;63800;51.972;5.682;2022-10-16T08:00:58;13.10;84.73
75217;HTU21D;63800;51.972;5.682;2022-10-16T08:03:24;13.25;83.88
75217;HTU21D;63800;51.972;5.682;2022-10-16T08:05:50;13.40;83.66
75217;HTU21D;63800;51.972;5.682;2022-10-16T08:08:17;13.39;83.77
75217;HTU21D;63800;51.972;5.682;2022-10-16T08:10:43;13.38;83.53
75217;HTU21D;63800;51.972;5.682;2022-10-16T08:13:09;13.37;83.49
75217;HTU21D;63800;51.972;5.682;2022-10-16T08:15:34;13.41;83.31
75217;HTU21D;63800;51.972;5.682;2022-10-16T08:18:02;13.21;84.21
75217;HTU21D;63800;51.972;5.682;2022-10-16T08:20:29;13.54;83.01
75217;HTU21D;63800;51.972;5.682;2022-10-16T08:22:55;13.44;83.67
75217;HTU21D;63800;51.972;5.682;2022-10-16T08:25:22;13.32;83.71
75217;HTU21D;63800;51.972;5.682;2022-10-16T08:27:48;13.45;83.68
75217;HTU21D;63800;51.972;5.682;2022-10-16T08:30:14;13.55;83.07
75217;HTU21D;63800;51.972;5.682;2022-10-16T08:32:40;13.46;83.55
75217;HTU21D;63800;51.972;5.682;2022-10-16T08:35:08;13.62;82.96
75217;HTU21D;63800;51.972;5.682;2022-10-16T08:37:35;13.63;82.94
75217;HTU21D;63800;51.972;5.682;2022-10-16T08:40:00;13.73;82.83
75217;HTU21D;63800;51.972;5.682;2022-10-16T08:46:20;13.81;81.94
75217;HTU21D;63800;51.972;5.682;2022-10-16T08:50:54;13.83;82.11
75217;HTU21D;63800;51.972;5.682;2022-10-16T08:53:35;13.80;82.26
75217;HTU21D;63800;51.972;5.682;2022-10-16T08:56:01;13.82;81.31
75217;HTU21D;63800;51.972;5.682;2022-10-16T08:58:29;13.92;81.03
75217;HTU21D;63800;51.972;5.682;2022-10-16T09:00:57;14.01;80.94
75217;HTU21D;63800;51.972;5.682;2022-10-16T09:14:33;14.39;79.12
75217;HTU21D;63800;51.972;5.682;2022-10-16T09:22:32;14.72;77.37
75217;HTU21D;63800;51.972;5.682;2022-10-16T09:25:00;14.58;78.03
75217;HTU21D;63800;51.972;5.682;2022-10-16T09:27:34;14.95;77.07
75217;HTU21D;63800;51.972;5.682;2022-10-16T09:30:00;14.87;77.22
75217;HTU21D;63800;51.972;5.682;2022-10-16T09:32:25;14.91;77.39
75217;HTU21D;63800;51.972;5.682;2022-10-16T09:34:54;14.87;77.12
75217;HTU21D;63800;51.972;5.682;2022-10-16T09:37:24;14.98;77.12
75217;HTU21D;63800;51.972;5.682;2022-10-16T09:39:52;15.63;74.24
75217;HTU21D;63800;51.972;5.682;2022-10-16T09:42:26;15.29;75.62
75217;HTU21D;63800;51.972;5.682;2022-10-16T09:44:53;15.26;75.86
75217;HTU21D;63800;51.972;5.682;2022-10-16T09:47:22;15.38;75.56
75217;HTU21D;63800;51.972;5.682;2022-10-16T09:50:13;15.47;75.15
75217;HTU21D;63800;51.972;5.682;2022-10-16T09:52:44;15.56;74.60
75217;HTU21D;63800;51.972;5.682;2022-10-16T09:55:15;15.53;74.81
75217;HTU21D;63800;51.972;5.682;2022-10-16T09:57:53;15.68;74.51
75217;HTU21D;63800;51.972;5.682;2022-10-16T10:00:20;15.57;75.09
75217;HTU21D;63800;51.972;5.682;2022-10-16T10:02:46;15.78;74.51
75217;HTU21D;63800;51.972;5.682;2022-10-16T10:05:22;15.98;73.41
75217;HTU21D;63800;51.972;5.682;2022-10-16T10:07:58;16.28;72.17
75217;HTU21D;63800;51.972;5.682;2022-10-16T10:10:30;16.41;71.69
75217;HTU21D;63800;51.972;5.682;2022-10-16T10:12:56;16.55;72.44
75217;HTU21D;63800;51.972;5.682;2022-10-16T10:15:22;17.04;69.55
75217;HTU21D;63800;51.972;5.682;2022-10-16T10:17:51;16.99;69.49
75217;HTU21D;63800;51.972;5.682;2022-10-16T10:22:54;17.20;68.19
75217;HTU21D;63800;51.972;5.682;2022-10-16T10:28:20;17.00;66.91
75217;HTU21D;63800;51.972;5.682;2022-10-16T10:31:01;17.17;66.55
75217;HTU21D;63800;51.972;5.682;2022-10-16T10:33:47;17.73;65.60
75217;HTU21D;63800;51.972;5.682;2022-10-16T10:38:57;17.32;65.91
75217;HTU21D;63800;51.972;5.682;2022-10-16T10:46:56;17.24;65.58
75217;HTU21D;63800;51.972;5.682;2022-10-16T10:52:10;17.73;63.48
75217;HTU21D;63800;51.972;5.682;2022-10-16T10:58:13;19.05;58.93
75217;HTU21D;63800;51.972;5.682;2022-10-16T11:03:45;18.77;60.77
75217;HTU21D;63800;51.972;5.682;2022-10-16T11:06:16;18.32;61.28
75217;HTU21D;63800;51.972;5.682;2022-10-16T11:08:47;18.51;59.03
75217;HTU21D;63800;51.972;5.682;2022-10-16T11:11:26;17.51;62.75
75217;HTU21D;63800;51.972;5.682;2022-10-16T11:16:52;18.02;60.43
75217;HTU21D;63800;51.972;5.682;2022-10-16T11:22:27;20.17;54.67
75217;HTU21D;63800;51.972;5.682;2022-10-16T11:27:38;22.32;49.67
75217;HTU21D;63800;51.972;5.682;2022-10-16T11:30:26;21.46;51.81
75217;HTU21D;63800;51.972;5.682;2022-10-16T11:35:24;22.53;48.00
75217;HTU21D;63800;51.972;5.682;2022-10-16T11:37:53;22.16;48.38
75217;HTU21D;63800;51.972;5.682;2022-10-16T11:40:27;23.52;44.94
75217;HTU21D;63800;51.972;5.682;2022-10-16T11:43:05;22.81;46.19
75217;HTU21D;63800;51.972;5.682;2022-10-16T11:45:50;23.62;45.06
75217;HTU21D;63800;51.972;5.682;2022-10-16T11:51:07;24.86;42.44
75217;HTU21D;63800;51.972;5.682;2022-10-16T11:53:39;24.17;43.38
75217;HTU21D;63800;51.972;5.682;2022-10-16T11:56:12;25.62;40.61
75217;HTU21D;63800;51.972;5.682;2022-10-16T11:58:51;23.37;45.62
75217;HTU21D;63800;51.972;5.682;2022-10-16T12:01:24;21.85;48.45
75217;HTU21D;63800;51.972;5.682;2022-10-16T12:06:52;20.83;49.93
75217;HTU21D;63800;51.972;5.682;2022-10-16T12:09:29;22.37;46.62
75217;HTU21D;63800;51.972;5.682;2022-10-16T12:11:55;22.90;44.24
75217;HTU21D;63800;51.972;5.682;2022-10-16T12:17:04;23.99;42.37
75217;HTU21D;63800;51.972;5.682;2022-10-16T12:19:31;24.95;42.78
75217;HTU21D;63800;51.972;5.682;2022-10-16T12:22:01;25.82;39.20
75217;HTU21D;63800;51.972;5.682;2022-10-16T12:24:34;23.95;44.12
75217;HTU21D;63800;51.972;5.682;2022-10-16T12:27:00;23.61;43.10
75217;HTU21D;63800;51.972;5.682;2022-10-16T12:29:37;25.43;40.65
75217;HTU21D;63800;51.972;5.682;2022-10-16T12:32:26;24.53;41.94
75217;HTU21D;63800;51.972;5.682;2022-10-16T12:34:52;23.67;42.92
75217;HTU21D;63800;51.972;5.682;2022-10-16T12:37:25;25.38;38.38
75217;HTU21D;63800;51.972;5.682;2022-10-16T12:39:53;25.43;39.94
75217;HTU21D;63800;51.972;5.682;2022-10-16T12:44:55;25.27;37.71
75217;HTU21D;63800;51.972;5.682;2022-10-16T12:47:38;24.98;39.96
75217;HTU21D;63800;51.972;5.682;2022-10-16T12:52:58;24.54;39.89
75217;HTU21D;63800;51.972;5.682;2022-10-16T12:55:24;25.49;38.59
75217;HTU21D;63800;51.972;5.682;2022-10-16T13:00:44;23.42;41.42
75217;HTU21D;63800;51.972;5.682;2022-10-16T13:08:28;26.40;36.94
75217;HTU21D;63800;51.972;5.682;2022-10-16T13:11:23;26.61;35.94
75217;HTU21D;63800;51.972;5.682;2022-10-16T13:17:07;26.15;37.32
75217;HTU21D;63800;51.972;5.682;2022-10-16T13:20:06;26.46;35.21
75217;HTU21D;63800;51.972;5.682;2022-10-16T13:28:10;26.55;36.61
75217;HTU21D;63800;51.972;5.682;2022-10-16T13:33:13;25.49;39.13
75217;HTU21D;63800;51.972;5.682;2022-10-16T13:35:48;25.08;39.27
75217;HTU21D;63800;51.972;5.682;2022-10-16T13:38:17;24.84;38.88
75217;HTU21D;63800;51.972;5.682;2022-10-16T13:41:12;24.75;39.00
75217;HTU21D;63800;51.972;5.682;2022-10-16T13:43:45;24.94;39.46
75217;HTU21D;63800;51.972;5.682;2022-10-16T13:46:18;24.05;41.63
75217;HTU21D;63800;51.972;5.682;2022-10-16T13:48:44;24.83;39.72
75217;HTU21D;63800;51.972;5.682;2022-10-16T13:51:14;24.53;40.60
75217;HTU21D;63800;51.972;5.682;2022-10-16T13:53:40;24.29;40.88
75217;HTU21D;63800;51.972;5.682;2022-10-16T13:56:10;23.64;42.91
75217;HTU21D;63800;51.972;5.682;2022-10-16T13:58:36;23.87;41.59
75217;HTU21D;63800;51.972;5.682;2022-10-16T14:03:41;22.64;45.38
75217;HTU21D;63800;51.972;5.682;2022-10-16T14:06:15;21.75;47.20
75217;HTU21D;63800;51.972;5.682;2022-10-16T14:08:48;21.40;48.20
75217;HTU21D;63800;51.972;5.682;2022-10-16T14:11:21;21.43;48.08
75217;HTU21D;63800;51.972;5.682;2022-10-16T14:13:49;20.76;49.96
75217;HTU21D;63800;51.972;5.682;2022-10-16T14:16:20;19.98;52.04
75217;HTU21D;63800;51.972;5.682;2022-10-16T14:18:57;20.60;50.45
75217;HTU21D;63800;51.972;5.682;2022-10-16T14:21:23;20.72;50.46
75217;HTU21D;63800;51.972;5.682;2022-10-16T14:23:49;20.65;50.36
75217;HTU21D;63800;51.972;5.682;2022-10-16T14:26:18;20.73;50.23
75217;HTU21D;63800;51.972;5.682;2022-10-16T14:28:45;20.60;51.12
75217;HTU21D;63800;51.972;5.682;2022-10-16T14:33:45;20.42;51.45
75217;HTU21D;63800;51.972;5.682;2022-10-16T14:36:13;20.28;51.25
75217;HTU21D;63800;51.972;5.682;2022-10-16T14:39:22;20.30;51.56
75217;HTU21D;63800;51.972;5.682;2022-10-16T14:41:33;20.02;52.63
75217;HTU21D;63800;51.972;5.682;2022-10-16T14:44:03;20.18;51.24
75217;HTU21D;63800;51.972;5.682;2022-10-16T14:46:36;20.48;51.01
75217;HTU21D;63800;51.972;5.682;2022-10-16T14:49:16;20.12;55.09
75217;HTU21D;63800;51.972;5.682;2022-10-16T14:51:42;20.11;55.31
75217;HTU21D;63800;51.972;5.682;2022-10-16T14:54:14;19.96;55.35
75217;HTU21D;63800;51.972;5.682;2022-10-16T14:56:52;19.83;54.77
75217;HTU21D;63800;51.972;5.682;2022-10-16T14:59:39;19.75;55.42
75217;HTU21D;63800;51.972;5.682;2022-10-16T15:04:47;19.56;54.16
75217;HTU21D;63800;51.972;5.682;2022-10-16T15:07:13;19.72;54.55
75217;HTU21D;63800;51.972;5.682;2022-10-16T15:09:38;19.65;56.30
75217;HTU21D;63800;51.972;5.682;2022-10-16T15:12:04;19.47;60.58
75217;HTU21D;63800;51.972;5.682;2022-10-16T15:14:29;19.47;61.34
75217;HTU21D;63800;51.972;5.682;2022-10-16T15:16:55;19.30;61.12
75217;HTU21D;63800;51.972;5.682;2022-10-16T15:19:20;19.08;61.41
75217;HTU21D;63800;51.972;5.682;2022-10-16T15:21:46;18.96;63.03
75217;HTU21D;63800;51.972;5.682;2022-10-16T15:24:13;19.07;62.53
75217;HTU21D;63800;51.972;5.682;2022-10-16T15:26:39;19.13;62.89
75217;HTU21D;63800;51.972;5.682;2022-10-16T15:29:04;19.11;62.52
75217;HTU21D;63800;51.972;5.682;2022-10-16T15:31:30;18.98;63.58
75217;HTU21D;63800;51.972;5.682;2022-10-16T15:33:56;18.98;64.33
75217;HTU21D;63800;51.972;5.682;2022-10-16T15:36:32;18.05;67.99
75217;HTU21D;63800;51.972;5.682;2022-10-16T15:39:06;18.94;64.93
75217;HTU21D;63800;51.972;5.682;2022-10-16T15:41:35;18.81;65.79
75217;HTU21D;63800;51.972;5.682;2022-10-16T15:44:01;18.63;65.36
75217;HTU21D;63800;51.972;5.682;2022-10-16T15:46:26;18.71;65.46
75217;HTU21D;63800;51.972;5.682;2022-10-16T15:48:57;18.48;67.27
75217;HTU21D;63800;51.972;5.682;2022-10-16T15:51:22;18.62;66.63
75217;HTU21D;63800;51.972;5.682;2022-10-16T15:53:48;18.52;67.18
75217;HTU21D;63800;51.972;5.682;2022-10-16T15:56:15;18.40;67.50
75217;HTU21D;63800;51.972;5.682;2022-10-16T15:58:42;18.29;67.78
75217;HTU21D;63800;51.972;5.682;2022-10-16T16:01:07;18.33;67.68
75217;HTU21D;63800;51.972;5.682;2022-10-16T16:03:35;18.03;68.61
75217;HTU21D;63800;51.972;5.682;2022-10-16T16:06:05;17.88;69.05
75217;HTU21D;63800;51.972;5.682;2022-10-16T16:08:32;17.81;69.49
75217;HTU21D;63800;51.972;5.682;2022-10-16T16:13:24;17.55;69.84
75217;HTU21D;63800;51.972;5.682;2022-10-16T16:15:50;16.82;72.39
75217;HTU21D;63800;51.972;5.682;2022-10-16T16:18:15;16.21;75.33
75217;HTU21D;63800;51.972;5.682;2022-10-16T16:20:40;16.95;72.86
75217;HTU21D;63800;51.972;5.682;2022-10-16T16:23:06;17.02;72.83
75217;HTU21D;63800;51.972;5.682;2022-10-16T16:25:31;17.33;71.06
75217;HTU21D;63800;51.972;5.682;2022-10-16T16:27:57;17.50;70.58
75217;HTU21D;63800;51.972;5.682;2022-10-16T16:30:22;17.49;70.55
75217;HTU21D;63800;51.972;5.682;2022-10-16T16:32:47;17.68;70.26
75217;HTU21D;63800;51.972;5.682;2022-10-16T16:35:13;17.64;70.55
75217;HTU21D;63800;51.972;5.682;2022-10-16T16:37:39;17.65;70.26
75217;HTU21D;63800;51.972;5.682;2022-10-16T16:40:04;17.50;70.42
75217;HTU21D;63800;51.972;5.682;2022-10-16T16:42:30;17.21;71.43
75217;HTU21D;63800;51.972;5.682;2022-10-16T16:44:55;17.03;71.52
75217;HTU21D;63800;51.972;5.682;2022-10-16T16:47:21;16.96;71.33
75217;HTU21D;63800;51.972;5.682;2022-10-16T16:49:47;16.81;71.57
75217;HTU21D;63800;51.972;5.682;2022-10-16T16:52:13;16.77;72.42
75217;HTU21D;63800;51.972;5.682;2022-10-16T16:54:39;16.78;72.50
75217;HTU21D;63800;51.972;5.682;2022-10-16T16:57:04;16.88;72.02
75217;HTU21D;63800;51.972;5.682;2022-10-16T16:59:30;16.88;71.29
75217;HTU21D;63800;51.972;5.682;2022-10-16T17:02:00;16.87;71.61
75217;HTU21D;63800;51.972;5.682;2022-10-16T17:04:26;16.14;74.65
75217;HTU21D;63800;51.972;5.682;2022-10-16T17:06:53;15.76;75.98
75217;HTU21D;63800;51.972;5.682;2022-10-16T17:09:20;15.81;75.83
75217;HTU21D;63800;51.972;5.682;2022-10-16T17:11:45;15.84;75.96
75217;HTU21D;63800;51.972;5.682;2022-10-16T17:14:12;15.83;75.90